Time;durP1;ratioP1;P1;durP2;ratioP2;P2;SDS_P1;SDS_P2;PMS_P1;PMS_P2;Temp;Humidity;BMP_temperature;BMP_pressure;BME280_temperature;BME280_humidity;BME280_pressure;Samples;Min_cycle;Max_cycle;Signal;HPM_P1;HPM_P2
2023/10/20 00:00:51;;;;;;;;;;;;;;;11.53;88.96;99010.44;5030492;28;19924;-72
2023/10/20 00:03:17;;;;;;;;;;;;;;;11.51;88.81;99010.00;5028374;28;19914;-72
2023/10/20 00:05:42;;;;;;;;;;;;;;;11.57;88.83;99011.34;5011326;28;19932;-72
2023/10/20 00:08:08;;;;;;;;;;;;;;;11.63;88.34;99001.56;5028618;28;19925;-73
2023/10/20 00:10:36;;;;;;;;;;;;;;;11.38;89.15;99012.81;5018015;28;19917;-73
2023/10/20 00:13:05;;;;;;;;;;;;;;;11.36;89.09;99009.53;5018670;28;19917;-72
2023/10/20 00:15:30;;;;;;;;;;;;;;;11.23;89.80;99003.13;5031598;28;19917;-72
2023/10/20 00:17:55;;;;;;;;;;;;;;;11.08;90.17;98996.25;5031680;28;19913;-73
2023/10/20 00:20:21;;;;;;;;;;;;;;;10.79;92.38;98992.50;5031672;28;20395;-72
2023/10/20 00:22:46;;;;;;;;;;;;;;;10.72;94.13;98997.84;5032595;28;19917;-73
2023/10/20 00:25:11;;;;;;;;;;;;;;;10.29;96.84;98996.34;5032708;28;19928;-73
2023/10/20 00:27:41;;;;;;;;;;;;;;;10.59;96.22;99001.81;5025844;28;19917;-72
2023/10/20 00:30:07;;;;;;;;;;;;;;;10.48;96.13;99004.22;5032770;28;19913;-72
2023/10/20 00:32:34;;;;;;;;;;;;;;;10.46;95.91;98993.38;5032369;28;19917;-72
2023/10/20 00:35:00;;;;;;;;;;;;;;;10.56;96.71;98989.34;5031242;28;20017;-72
2023/10/20 00:37:25;;;;;;;;;;;;;;;10.32;96.69;99001.25;5024632;28;19921;-73
2023/10/20 00:39:51;;;;;;;;;;;;;;;10.14;98.86;98990.25;5011558;28;19920;-72
2023/10/20 00:42:16;;;;;;;;;;;;;;;10.03;99.41;98989.84;5014201;28;19917;-72
2023/10/20 00:44:41;;;;;;;;;;;;;;;9.87;99.76;98992.44;5030327;28;19932;-72
2023/10/20 00:47:09;;;;;;;;;;;;;;;10.12;100.00;98992.56;5026912;28;19991;-72
2023/10/20 00:49:36;;;;;;;;;;;;;;;10.31;98.19;98985.63;5011661;28;19972;-73
2023/10/20 00:52:01;;;;;;;;;;;;;;;10.42;96.72;98978.47;5020152;28;20395;-73
2023/10/20 00:54:27;;;;;;;;;;;;;;;10.47;96.25;98981.03;5031789;28;19967;-73
2023/10/20 00:56:53;;;;;;;;;;;;;;;10.61;94.95;98975.13;5032211;28;19974;-73
2023/10/20 00:59:18;;;;;;;;;;;;;;;10.70;94.52;98983.41;5022524;28;20370;-72
2023/10/20 01:01:43;;;;;;;;;;;;;;;10.31;95.84;98978.06;5026091;28;19923;-72
2023/10/20 01:04:09;;;;;;;;;;;;;;;10.02;97.87;98981.81;5043727;28;20003;-73
2023/10/20 01:06:35;;;;;;;;;;;;;;;10.25;96.35;98979.44;5032127;28;20047;-72
2023/10/20 01:09:01;;;;;;;;;;;;;;;10.16;96.46;98981.50;5012681;28;19972;-72
2023/10/20 01:11:26;;;;;;;;;;;;;;;9.94;97.63;98975.97;5010994;28;20427;-72
2023/10/20 01:13:51;;;;;;;;;;;;;;;9.88;99.25;98968.94;5013911;28;19923;-72
2023/10/20 01:16:18;;;;;;;;;;;;;;;9.95;97.48;98972.00;5024253;28;19922;-72
2023/10/20 01:18:44;;;;;;;;;;;;;;;9.93;97.41;98967.91;5027322;28;19914;-73
2023/10/20 01:21:09;;;;;;;;;;;;;;;9.75;97.59;98964.47;5012178;28;20021;-72
2023/10/20 01:23:35;;;;;;;;;;;;;;;9.74;98.70;98960.03;5022967;28;19917;-72
2023/10/20 01:26:01;;;;;;;;;;;;;;;9.95;97.51;98963.63;5030548;28;19913;-72
2023/10/20 01:28:26;;;;;;;;;;;;;;;10.02;97.12;98960.28;5028541;28;20008;-72
2023/10/20 01:30:52;;;;;;;;;;;;;;;10.18;95.41;98957.66;5012796;28;20396;-72
2023/10/20 01:33:17;;;;;;;;;;;;;;;10.30;94.81;98958.84;5020214;28;19917;-72
2023/10/20 01:35:42;;;;;;;;;;;;;;;10.32;94.55;98959.31;5031633;28;20037;-73
2023/10/20 01:38:08;;;;;;;;;;;;;;;10.38;94.46;98964.34;5030191;28;20000;-72
2023/10/20 01:40:33;;;;;;;;;;;;;;;10.05;94.32;98976.34;5030380;28;19913;-72
2023/10/20 01:42:59;;;;;;;;;;;;;;;9.87;96.53;98975.69;5031470;28;19921;-72
2023/10/20 01:45:24;;;;;;;;;;;;;;;10.04;96.00;98971.13;5031548;28;19913;-72
2023/10/20 01:47:49;;;;;;;;;;;;;;;9.62;97.69;98969.19;5029753;28;19986;-73
2023/10/20 01:50:15;;;;;;;;;;;;;;;9.45;99.34;98967.34;5029939;28;19959;-72
2023/10/20 01:52:41;;;;;;;;;;;;;;;9.73;98.22;98969.56;5016493;28;19924;-73
2023/10/20 01:55:06;;;;;;;;;;;;;;;9.76;98.30;98968.88;5030969;28;19928;-72
2023/10/20 01:57:31;;;;;;;;;;;;;;;9.59;98.50;98979.06;5030244;28;19936;-72
2023/10/20 01:59:57;;;;;;;;;;;;;;;9.37;99.90;98969.84;5027982;28;20007;-73
2023/10/20 02:02:22;;;;;;;;;;;;;;;9.51;100.00;98974.34;5022665;28;19917;-73
2023/10/20 02:04:47;;;;;;;;;;;;;;;9.71;99.50;98969.91;5031248;28;19924;-73
2023/10/20 02:07:13;;;;;;;;;;;;;;;9.82;99.06;98961.94;5030169;28;20704;-73
2023/10/20 02:09:38;;;;;;;;;;;;;;;9.94;98.02;98959.19;5031201;28;20392;-73
2023/10/20 02:12:04;;;;;;;;;;;;;;;9.98;97.49;98965.72;5031386;28;19928;-73
2023/10/20 02:14:30;;;;;;;;;;;;;;;10.12;96.81;98967.41;5026556;28;19918;-72
2023/10/20 02:16:56;;;;;;;;;;;;;;;10.10;96.08;98962.16;5011177;28;19921;-73
2023/10/20 02:19:21;;;;;;;;;;;;;;;10.14;94.55;98970.69;5011600;28;19913;-73
2023/10/20 02:21:47;;;;;;;;;;;;;;;10.28;94.34;98964.78;5009919;28;20320;-73
2023/10/20 02:24:12;;;;;;;;;;;;;;;10.12;94.73;98964.59;5025950;28;19923;-73
2023/10/20 02:26:38;;;;;;;;;;;;;;;9.86;95.09;98948.91;5029992;28;20221;-73
2023/10/20 02:29:03;;;;;;;;;;;;;;;9.75;95.06;98951.31;5032810;28;19913;-73
2023/10/20 02:31:28;;;;;;;;;;;;;;;9.81;95.82;98937.97;5032842;28;19921;-72
2023/10/20 02:33:54;;;;;;;;;;;;;;;10.03;94.04;98942.34;5027433;28;19917;-73
2023/10/20 02:36:20;;;;;;;;;;;;;;;10.11;92.59;98933.06;5032920;28;20070;-73
2023/10/20 02:38:47;;;;;;;;;;;;;;;10.09;92.54;98940.16;5033595;28;20300;-73
2023/10/20 02:41:14;;;;;;;;;;;;;;;9.73;92.82;98936.06;5033500;28;20364;-73
2023/10/20 02:43:39;;;;;;;;;;;;;;;9.51;95.13;98929.69;5034483;28;19928;-72
2023/10/20 02:46:04;;;;;;;;;;;;;;;9.45;97.68;98928.25;5032502;28;19914;-73
2023/10/20 02:48:30;;;;;;;;;;;;;;;9.60;96.65;98922.03;5017764;28;19922;-73
2023/10/20 02:50:55;;;;;;;;;;;;;;;9.79;95.75;98921.53;5013517;28;20000;-73
2023/10/20 02:53:20;;;;;;;;;;;;;;;9.86;94.63;98911.81;5021740;28;20249;-73
2023/10/20 02:55:46;;;;;;;;;;;;;;;9.88;95.09;98904.69;5032881;28;20418;-73
2023/10/20 02:58:12;;;;;;;;;;;;;;;9.90;94.05;98910.78;5033176;28;19963;-72
2023/10/20 03:00:42;;;;;;;;;;;;;;;9.92;93.01;98911.25;5024810;28;19917;-73
2023/10/20 03:03:08;;;;;;;;;;;;;;;9.91;92.68;98909.63;5022350;28;19940;-73
2023/10/20 03:05:33;;;;;;;;;;;;;;;9.24;97.05;98909.53;5033075;28;19917;-73
2023/10/20 03:07:58;;;;;;;;;;;;;;;8.94;100.00;98907.59;5024535;28;19979;-73
2023/10/20 03:10:25;;;;;;;;;;;;;;;8.87;100.00;98918.50;5013135;28;19957;-71
2023/10/20 03:12:50;;;;;;;;;;;;;;;8.88;100.00;98919.28;5018960;28;19917;-72
2023/10/20 03:15:16;;;;;;;;;;;;;;;8.97;99.82;98925.63;5024539;28;19922;-72
2023/10/20 03:17:41;;;;;;;;;;;;;;;8.88;100.00;98922.06;5013134;28;20398;-72
2023/10/20 03:20:08;;;;;;;;;;;;;;;9.02;99.71;98919.84;5012836;28;19913;-72
2023/10/20 03:22:34;;;;;;;;;;;;;;;9.17;98.65;98923.19;5017588;28;19948;-72
2023/10/20 03:25:02;;;;;;;;;;;;;;;9.30;97.96;98919.34;5032536;28;19967;-72
2023/10/20 03:27:29;;;;;;;;;;;;;;;9.33;96.49;98917.81;5033925;28;19913;-72
2023/10/20 03:29:54;;;;;;;;;;;;;;;9.39;96.28;98938.81;5021310;28;20281;-72
2023/10/20 03:32:19;;;;;;;;;;;;;;;9.44;94.80;98935.00;5013174;28;19936;-72
2023/10/20 03:34:46;;;;;;;;;;;;;;;9.48;94.38;98933.16;5032348;28;19913;-72
2023/10/20 03:37:13;;;;;;;;;;;;;;;9.54;94.05;98932.59;5030589;28;19913;-72
2023/10/20 03:39:39;;;;;;;;;;;;;;;9.54;94.19;98926.22;5017073;28;19921;-72
2023/10/20 03:42:06;;;;;;;;;;;;;;;9.60;94.01;98926.84;5031797;28;19913;-72
2023/10/20 03:44:33;;;;;;;;;;;;;;;9.33;94.90;98943.78;5032572;28;20347;-72
2023/10/20 03:46:59;;;;;;;;;;;;;;;8.70;100.00;98952.84;5032144;28;19928;-72
2023/10/20 03:49:25;;;;;;;;;;;;;;;8.31;100.00;98950.00;5032029;28;20032;-72
2023/10/20 03:51:51;;;;;;;;;;;;;;;8.17;100.00;98963.34;5033227;28;20051;-72
2023/10/20 03:54:17;;;;;;;;;;;;;;;8.21;100.00;98950.38;5032017;28;20432;-72
2023/10/20 03:56:42;;;;;;;;;;;;;;;8.30;100.00;98953.94;5031407;28;19986;-72
2023/10/20 03:59:08;;;;;;;;;;;;;;;8.32;100.00;98946.06;5031504;28;19913;-72
2023/10/20 04:01:34;;;;;;;;;;;;;;;8.28;100.00;98933.97;5032038;28;19913;-72
2023/10/20 04:03:59;;;;;;;;;;;;;;;8.64;100.00;98934.66;5031789;28;20315;-72
2023/10/20 04:06:24;;;;;;;;;;;;;;;8.82;100.00;98939.00;5031821;28;19917;-72
2023/10/20 04:08:50;;;;;;;;;;;;;;;9.01;100.00;98936.94;5018247;28;19923;-72
2023/10/20 04:11:15;;;;;;;;;;;;;;;9.10;100.00;98934.91;5011984;28;19964;-72
2023/10/20 04:13:40;;;;;;;;;;;;;;;9.20;98.40;98944.84;5022919;28;19924;-72
2023/10/20 04:16:17;;;;;;;;;;;;;;;9.20;96.93;98953.22;5024719;28;20435;-73
2023/10/20 04:18:43;;;;;;;;;;;;;;;9.21;96.72;98949.28;5025364;28;19921;-72
2023/10/20 04:21:11;;;;;;;;;;;;;;;9.21;96.03;98938.13;5031440;28;19913;-73
2023/10/20 04:23:36;;;;;;;;;;;;;;;9.27;96.00;98936.75;5030694;28;19917;-72
2023/10/20 04:26:02;;;;;;;;;;;;;;;9.30;95.88;98940.84;5030521;28;19920;-72
2023/10/20 04:28:42;;;;;;;;;;;;;;;9.30;95.29;98940.84;5028595;28;19996;-72
2023/10/20 04:57:53;;;;;;;;;;;;;;;9.10;95.28;98938.50;5020978;28;19939;-72
2023/10/20 05:07:51;;;;;;;;;;;;;;;9.06;94.15;98936.72;5027835;28;20300;-71
2023/10/20 05:10:20;;;;;;;;;;;;;;;8.98;94.86;98936.44;5029927;28;19916;-74
2023/10/20 05:12:45;;;;;;;;;;;;;;;9.10;94.62;98932.94;5018045;28;19913;-74
2023/10/20 05:15:11;;;;;;;;;;;;;;;9.17;93.97;98934.34;5026064;28;19933;-79
2023/10/20 05:17:36;;;;;;;;;;;;;;;9.01;94.88;98932.16;5011372;28;20377;-76
2023/10/20 05:20:08;;;;;;;;;;;;;;;8.83;96.53;98929.50;5011540;28;19918;-76
2023/10/20 05:22:33;;;;;;;;;;;;;;;9.06;95.53;98926.41;5025008;28;19917;-79
2023/10/20 05:24:59;;;;;;;;;;;;;;;9.22;94.55;98931.38;5014824;28;20313;-78
2023/10/20 05:27:24;;;;;;;;;;;;;;;9.15;95.62;98934.72;5046525;28;19940;-76
2023/10/20 05:29:50;;;;;;;;;;;;;;;9.30;94.68;98940.84;5031457;28;19917;-77
2023/10/20 05:32:15;;;;;;;;;;;;;;;9.31;95.06;98954.47;5010561;28;19917;-74
2023/10/20 05:34:40;;;;;;;;;;;;;;;9.20;96.02;98953.22;5013272;28;19924;-71
2023/10/20 05:37:06;;;;;;;;;;;;;;;8.99;97.15;98949.25;5012516;28;19928;-73
2023/10/20 05:39:31;;;;;;;;;;;;;;;9.22;95.99;98932.19;5031484;28;20358;-71
2023/10/20 05:41:56;;;;;;;;;;;;;;;9.24;96.71;98926.28;5029946;28;19918;-70
2023/10/20 05:44:23;;;;;;;;;;;;;;;9.30;96.72;98952.00;5011755;28;19976;-73
2023/10/20 05:46:49;;;;;;;;;;;;;;;9.37;97.20;98953.09;5019567;28;19940;-73
2023/10/20 05:49:15;;;;;;;;;;;;;;;9.50;96.80;98944.78;5022542;28;19925;-72
2023/10/20 05:51:40;;;;;;;;;;;;;;;9.71;96.58;98950.34;5038961;28;20354;-75
2023/10/20 05:54:05;;;;;;;;;;;;;;;9.78;96.63;98952.63;5024493;28;19921;-73
2023/10/20 05:56:31;;;;;;;;;;;;;;;9.48;97.88;98958.28;5013512;28;20329;-72
2023/10/20 05:58:56;;;;;;;;;;;;;;;9.60;97.81;98954.75;5024218;28;19956;-71
2023/10/20 06:01:22;;;;;;;;;;;;;;;9.57;100.00;98955.41;5030556;28;20307;-69
2023/10/20 06:03:47;;;;;;;;;;;;;;;9.90;98.77;98951.84;5024319;28;19921;-69
2023/10/20 06:06:12;;;;;;;;;;;;;;;9.48;100.00;98958.28;5022847;28;19920;-68
2023/10/20 06:08:38;;;;;;;;;;;;;;;9.94;100.00;98964.78;5036652;28;20387;-71
2023/10/20 06:11:03;;;;;;;;;;;;;;;10.24;99.74;98969.44;5019513;28;19917;-71
2023/10/20 06:13:33;;;;;;;;;;;;;;;10.33;98.81;98967.38;5019150;28;19921;-71
2023/10/20 06:16:04;;;;;;;;;;;;;;;10.49;97.80;98961.94;5015354;28;19941;-71
2023/10/20 06:18:29;;;;;;;;;;;;;;;10.47;99.06;98964.25;5023605;28;19932;-69
2023/10/20 06:20:55;;;;;;;;;;;;;;;10.51;98.34;98958.78;5031104;28;19917;-71
2023/10/20 06:23:21;;;;;;;;;;;;;;;10.72;97.51;98969.88;5022313;28;19928;-73
2023/10/20 06:25:46;;;;;;;;;;;;;;;10.31;99.47;98974.44;5028384;28;19967;-74
2023/10/20 06:28:12;;;;;;;;;;;;;;;10.60;99.98;98978.25;5031213;28;19913;-72
2023/10/20 06:30:43;;;;;;;;;;;;;;;10.37;100.00;98981.44;5034495;28;20328;-75
2023/10/20 06:35:47;;;;;;;;;;;;;;;10.93;97.55;98994.97;5032702;28;19921;-74
2023/10/20 06:38:14;;;;;;;;;;;;;;;10.35;100.00;98986.56;5049876;28;19917;-74
2023/10/20 06:40:40;;;;;;;;;;;;;;;10.22;100.00;98992.13;5026333;28;19928;-75
2023/10/20 06:43:05;;;;;;;;;;;;;;;10.37;100.00;98989.81;5033233;28;20030;-74
2023/10/20 06:45:31;;;;;;;;;;;;;;;10.71;100.00;98981.44;5030806;28;20004;-78
2023/10/20 06:47:57;;;;;;;;;;;;;;;10.94;99.28;98987.38;5035442;28;20388;-76
2023/10/20 06:50:23;;;;;;;;;;;;;;;11.13;98.39;98984.00;5034822;28;19917;-76
2023/10/20 06:52:48;;;;;;;;;;;;;;;10.79;100.00;98984.13;5024795;28;20408;-76
2023/10/20 06:55:13;;;;;;;;;;;;;;;10.96;100.00;98990.66;5029789;28;19925;-76
2023/10/20 06:57:38;;;;;;;;;;;;;;;11.06;99.74;98989.38;5025896;28;20388;-76
2023/10/20 07:00:06;;;;;;;;;;;;;;;11.15;99.74;98989.25;5022988;28;19917;-76
2023/10/20 07:02:31;;;;;;;;;;;;;;;11.32;99.23;99003.00;5024716;28;20007;-76
2023/10/20 07:04:57;;;;;;;;;;;;;;;11.49;99.16;98990.72;5024066;28;20016;-76
2023/10/20 07:07:22;;;;;;;;;;;;;;;11.21;98.82;99002.66;5026933;28;20011;-76
2023/10/20 07:09:48;;;;;;;;;;;;;;;11.43;99.18;99000.56;5028078;28;19918;-76
2023/10/20 07:12:16;;;;;;;;;;;;;;;11.49;97.29;98998.31;5017609;28;19918;-72
2023/10/20 07:14:43;;;;;;;;;;;;;;;11.48;95.68;98993.91;5022184;28;19917;-72
2023/10/20 07:17:11;;;;;;;;;;;;;;;11.67;96.31;98987.66;5027537;28;19953;-79
2023/10/20 07:19:37;;;;;;;;;;;;;;;11.66;94.87;98998.03;5031824;28;19917;-77
2023/10/20 07:22:02;;;;;;;;;;;;;;;11.72;94.17;98997.81;5032615;28;19913;-75
2023/10/20 07:24:28;;;;;;;;;;;;;;;12.00;94.54;98999.81;5021954;28;19917;-76
2023/10/20 07:26:54;;;;;;;;;;;;;;;12.20;92.62;98993.22;5012640;28;19936;-77
2023/10/20 07:29:21;;;;;;;;;;;;;;;12.33;92.46;98981.94;5042778;28;19928;-76
2023/10/20 07:31:47;;;;;;;;;;;;;;;12.57;91.15;98982.97;5027990;28;20509;-79
2023/10/20 07:34:12;;;;;;;;;;;;;;;12.80;90.79;98982.34;5025021;28;19949;-80
2023/10/20 07:36:38;;;;;;;;;;;;;;;12.97;89.78;98981.16;5032468;28;19983;-80
2023/10/20 07:39:04;;;;;;;;;;;;;;;12.91;89.80;98994.63;5027348;28;19917;-77
2023/10/20 07:41:29;;;;;;;;;;;;;;;13.11;88.71;98981.53;5025354;28;19925;-78
2023/10/20 07:43:56;;;;;;;;;;;;;;;13.15;88.44;98984.38;5012295;28;19933;-75
2023/10/20 07:46:22;;;;;;;;;;;;;;;12.94;87.49;98985.50;5032230;28;19925;-75
2023/10/20 07:48:47;;;;;;;;;;;;;;;13.07;88.55;98980.59;5019056;28;19928;-77
2023/10/20 07:51:12;;;;;;;;;;;;;;;13.46;86.76;98969.53;5023222;28;20074;-72
2023/10/20 07:53:38;;;;;;;;;;;;;;;13.73;84.79;98966.06;5031761;28;20427;-71
2023/10/20 07:56:08;;;;;;;;;;;;;;;13.28;85.27;98969.09;5032050;28;19921;-74
2023/10/20 07:58:33;;;;;;;;;;;;;;;13.43;85.56;98947.72;5021265;28;19917;-69
2023/10/20 08:01:00;;;;;;;;;;;;;;;13.86;83.36;98953.47;5027964;28;19925;-69
2023/10/20 08:03:25;;;;;;;;;;;;;;;14.10;81.78;98947.94;5025675;28;19927;-69
2023/10/20 08:05:51;;;;;;;;;;;;;;;14.20;78.98;98935.25;5033809;28;19917;-69
2023/10/20 08:08:17;;;;;;;;;;;;;;;13.95;80.56;98944.84;5021832;28;19924;-69
2023/10/20 08:10:43;;;;;;;;;;;;;;;14.10;79.68;98939.50;5026444;28;19951;-74
2023/10/20 08:13:09;;;;;;;;;;;;;;;14.24;79.08;98939.78;5016988;28;20385;-74
2023/10/20 08:15:38;;;;;;;;;;;;;;;14.24;79.44;98934.16;5032432;28;20024;-74
2023/10/20 08:18:04;;;;;;;;;;;;;;;14.51;78.11;98931.41;5022339;28;19966;-76
2023/10/20 08:20:29;;;;;;;;;;;;;;;14.92;78.46;98922.47;5011778;28;19928;-73
2023/10/20 08:22:55;;;;;;;;;;;;;;;14.78;75.93;98936.31;5028521;28;19918;-75
2023/10/20 08:25:20;;;;;;;;;;;;;;;15.03;77.18;98922.66;5016483;28;19921;-76
2023/10/20 08:27:47;;;;;;;;;;;;;;;15.43;76.30;98942.94;5015084;28;19971;-77
2023/10/20 08:30:13;;;;;;;;;;;;;;;15.65;75.22;98934.78;5013498;28;19914;-76
2023/10/20 08:32:38;;;;;;;;;;;;;;;14.90;76.45;98933.28;5027774;28;19917;-76
2023/10/20 08:35:08;;;;;;;;;;;;;;;15.28;76.40;98925.81;5012341;28;19953;-74
2023/10/20 08:37:35;;;;;;;;;;;;;;;15.54;75.31;98935.44;5014481;28;20443;-75
2023/10/20 08:40:00;;;;;;;;;;;;;;;15.97;73.46;98932.38;5021752;28;19929;-71
2023/10/20 08:42:25;;;;;;;;;;;;;;;16.27;73.37;98934.34;5028171;28;20422;-70
2023/10/20 08:44:51;;;;;;;;;;;;;;;15.81;72.85;98931.75;5021694;28;19967;-71
2023/10/20 08:47:17;;;;;;;;;;;;;;;15.87;71.01;98935.88;5024120;28;19921;-71
2023/10/20 08:49:43;;;;;;;;;;;;;;;16.19;70.01;98946.72;5028788;28;19921;-71
2023/10/20 08:52:10;;;;;;;;;;;;;;;16.11;69.32;98950.69;5030776;28;19913;-72
2023/10/20 08:54:36;;;;;;;;;;;;;;;16.31;70.36;98942.84;5021638;28;19968;-72
2023/10/20 08:57:02;;;;;;;;;;;;;;;16.73;70.66;98940.00;5013629;28;19964;-74
2023/10/20 08:59:27;;;;;;;;;;;;;;;16.79;69.07;98944.09;5023706;28;19927;-72
2023/10/20 09:01:53;;;;;;;;;;;;;;;16.83;67.61;98948.56;5029290;28;19917;-73
2023/10/20 09:04:22;;;;;;;;;;;;;;;17.15;69.33;98938.75;5019508;28;20008;-71
2023/10/20 09:06:47;;;;;;;;;;;;;;;17.30;65.64;98934.00;5011302;28;20411;-71
2023/10/20 09:09:14;;;;;;;;;;;;;;;17.39;65.98;98940.13;5023950;28;19921;-70
2023/10/20 09:11:43;;;;;;;;;;;;;;;16.87;67.19;98948.59;5021288;28;19968;-71
2023/10/20 09:14:09;;;;;;;;;;;;;;;16.75;68.27;98949.72;5027798;28;19928;-71
2023/10/20 09:16:34;;;;;;;;;;;;;;;17.11;68.18;98932.25;5013269;28;19922;-82
2023/10/20 09:18:59;;;;;;;;;;;;;;;17.00;66.84;98931.38;5022383;28;19924;-77
2023/10/20 09:21:26;;;;;;;;;;;;;;;17.20;66.37;98927.06;5027101;28;20316;-74
2023/10/20 09:24:04;;;;;;;;;;;;;;;17.32;66.71;98931.59;5021165;28;19949;-74
2023/10/20 09:26:31;;;;;;;;;;;;;;;17.83;65.01;98926.22;5024481;28;19925;-77
2023/10/20 09:28:56;;;;;;;;;;;;;;;18.14;63.58;98917.44;5010323;28;19925;-75
2023/10/20 09:31:23;;;;;;;;;;;;;;;18.26;62.63;98917.06;5011923;28;19944;-72
2023/10/20 09:33:49;;;;;;;;;;;;;;;18.28;61.41;98916.66;5026455;28;19925;-73
2023/10/20 09:36:23;;;;;;;;;;;;;;;18.50;62.18;98912.66;5022848;28;19925;-80
2023/10/20 09:38:55;;;;;;;;;;;;;;;18.60;61.58;98913.88;5025342;28;19921;-75
2023/10/20 09:41:22;;;;;;;;;;;;;;;18.76;60.85;98901.34;5014465;28;19921;-73
2023/10/20 09:43:48;;;;;;;;;;;;;;;18.53;60.86;98911.03;5026381;28;19917;-73
2023/10/20 09:46:17;;;;;;;;;;;;;;;18.43;62.58;98906.16;5024149;28;19921;-73
2023/10/20 09:48:43;;;;;;;;;;;;;;;18.86;61.49;98900.53;5025641;28;19976;-75
2023/10/20 09:51:09;;;;;;;;;;;;;;;18.92;60.58;98903.75;5028183;28;19921;-75
2023/10/20 09:53:35;;;;;;;;;;;;;;;19.00;60.79;98898.94;5029823;28;20047;-79
2023/10/20 09:56:02;;;;;;;;;;;;;;;19.17;60.75;98898.06;5024565;28;21304;-78
2023/10/20 09:58:33;;;;;;;;;;;;;;;19.45;59.19;98896.41;5024548;28;19913;-79
2023/10/20 10:00:59;;;;;;;;;;;;;;;19.54;58.09;98900.81;5021246;28;19997;-75
2023/10/20 10:03:42;;;;;;;;;;;;;;;19.71;57.17;98891.44;5028772;28;19992;-75
2023/10/20 10:06:13;;;;;;;;;;;;;;;19.67;58.40;98895.53;5025753;28;19924;-74
2023/10/20 10:08:43;;;;;;;;;;;;;;;19.74;57.28;98884.94;5027141;28;19936;-74
2023/10/20 10:11:19;;;;;;;;;;;;;;;19.27;57.08;98878.63;5029041;28;19917;-74
2023/10/20 10:13:44;;;;;;;;;;;;;;;19.72;56.79;98875.22;5021709;28;19967;-74
2023/10/20 10:16:13;;;;;;;;;;;;;;;19.02;56.91;98880.31;5029533;28;19995;-74
2023/10/20 10:18:44;;;;;;;;;;;;;;;19.09;57.96;98871.00;5024912;28;19913;-74
2023/10/20 10:21:20;;;;;;;;;;;;;;;19.59;55.98;98877.72;5019502;28;19926;-74
2023/10/20 10:24:01;;;;;;;;;;;;;;;19.49;57.51;98868.06;5020645;28;19921;-74
2023/10/20 10:26:27;;;;;;;;;;;;;;;19.86;55.39;98868.69;5010950;28;19921;-74
2023/10/20 10:28:52;;;;;;;;;;;;;;;19.96;55.21;98865.00;5023162;28;20011;-74
2023/10/20 10:31:17;;;;;;;;;;;;;;;20.25;55.09;98855.50;5015818;28;20328;-75
2023/10/20 10:33:42;;;;;;;;;;;;;;;20.38;53.92;98861.50;5012110;28;19932;-75
2023/10/20 10:36:10;;;;;;;;;;;;;;;20.37;54.60;98862.72;5030435;28;19921;-75
2023/10/20 10:38:43;;;;;;;;;;;;;;;20.48;54.55;98857.75;5024989;28;19913;-74
2023/10/20 10:41:08;;;;;;;;;;;;;;;20.77;55.28;98852.66;5010846;28;20375;-74
2023/10/20 10:43:33;;;;;;;;;;;;;;;20.84;53.73;98856.69;5011077;28;19939;-74
2023/10/20 10:45:59;;;;;;;;;;;;;;;21.09;53.62;98850.75;5018359;28;19917;-81
2023/10/20 10:48:25;;;;;;;;;;;;;;;20.94;52.52;98852.13;5017440;28;19921;-75
2023/10/20 10:50:51;;;;;;;;;;;;;;;21.10;54.46;98855.19;5026079;28;19971;-76
2023/10/20 10:53:16;;;;;;;;;;;;;;;21.22;53.52;98847.38;5031434;28;19921;-76
2023/10/20 10:55:41;;;;;;;;;;;;;;;21.34;54.07;98838.28;5013432;28;20430;-76
2023/10/20 10:58:08;;;;;;;;;;;;;;;21.42;53.03;98839.81;5015353;28;19932;-76
2023/10/20 11:00:33;;;;;;;;;;;;;;;21.31;53.63;98828.59;5016794;28;19940;-76
2023/10/20 11:03:00;;;;;;;;;;;;;;;21.31;53.24;98831.44;5018478;28;19921;-76
2023/10/20 11:05:25;;;;;;;;;;;;;;;21.53;52.80;98828.31;5028050;28;19925;-77
2023/10/20 11:08:04;;;;;;;;;;;;;;;21.63;51.74;98834.28;5013560;28;19929;-76
2023/10/20 11:10:32;;;;;;;;;;;;;;;21.64;50.73;98825.34;5034405;28;19928;-75
2023/10/20 11:12:58;;;;;;;;;;;;;;;21.58;50.83;98830.69;5020940;28;19913;-76
2023/10/20 11:15:30;;;;;;;;;;;;;;;21.07;51.73;98838.22;5016418;28;19921;-75
2023/10/20 11:18:05;;;;;;;;;;;;;;;21.34;52.79;98826.91;5019938;28;20392;-76
2023/10/20 11:20:36;;;;;;;;;;;;;;;21.25;51.54;98818.91;5027096;28;19917;-76
2023/10/20 11:23:03;;;;;;;;;;;;;;;21.55;51.93;98825.03;5018628;28;20007;-77
2023/10/20 11:25:29;;;;;;;;;;;;;;;21.71;51.07;98811.03;5023926;28;19917;-84
2023/10/20 11:27:54;;;;;;;;;;;;;;;21.84;50.96;98801.91;5035797;28;20007;-76
2023/10/20 11:30:38;;;;;;;;;;;;;;;21.77;50.45;98791.44;5031721;28;20048;-73
2023/10/20 11:33:04;;;;;;;;;;;;;;;21.04;52.20;98803.69;5018044;28;20311;-76
2023/10/20 11:35:29;;;;;;;;;;;;;;;21.31;51.72;98788.78;5028516;28;20011;-77
2023/10/20 11:37:55;;;;;;;;;;;;;;;21.79;51.62;98788.16;5016635;28;20370;-77
2023/10/20 11:40:21;;;;;;;;;;;;;;;22.07;51.33;98791.81;5024500;28;20402;-78
2023/10/20 11:42:48;;;;;;;;;;;;;;;22.21;50.61;98791.63;5018027;28;19960;-84
2023/10/20 11:45:13;;;;;;;;;;;;;;;22.32;50.34;98784.91;5013340;28;20308;-84
2023/10/20 11:47:39;;;;;;;;;;;;;;;22.35;50.30;98786.91;5020334;28;19924;-78
2023/10/20 11:50:05;;;;;;;;;;;;;;;22.51;49.82;98787.06;5024142;28;19917;-80
2023/10/20 11:52:30;;;;;;;;;;;;;;;22.58;50.47;98786.94;5016174;28;20363;-80
2023/10/20 11:54:55;;;;;;;;;;;;;;;22.65;49.55;98797.41;5026982;28;19960;-80
2023/10/20 11:57:21;;;;;;;;;;;;;;;22.49;49.70;98789.56;5032070;28;20262;-81
2023/10/20 11:59:46;;;;;;;;;;;;;;;22.58;50.10;98778.41;5017182;28;19921;-80
2023/10/20 12:02:11;;;;;;;;;;;;;;;22.70;49.26;98787.56;5013355;28;20473;-81
2023/10/20 12:04:37;;;;;;;;;;;;;;;22.72;48.59;98791.56;5014053;28;19918;-79
2023/10/20 12:07:05;;;;;;;;;;;;;;;22.78;49.17;98776.84;5026322;28;19917;-80
2023/10/20 12:09:31;;;;;;;;;;;;;;;22.83;48.28;98776.31;5026100;28;19982;-80
2023/10/20 12:11:56;;;;;;;;;;;;;;;22.98;48.13;98779.72;5017346;28;20016;-79
2023/10/20 12:14:21;;;;;;;;;;;;;;;22.81;49.02;98785.31;5017556;28;19918;-80
2023/10/20 12:16:47;;;;;;;;;;;;;;;22.82;49.55;98781.22;5019713;28;20328;-77
2023/10/20 12:19:12;;;;;;;;;;;;;;;22.70;49.44;98773.31;5016917;28;19921;-76
2023/10/20 12:21:37;;;;;;;;;;;;;;;22.78;49.11;98771.94;5028145;28;20420;-78
2023/10/20 12:24:03;;;;;;;;;;;;;;;23.01;49.15;98773.13;5031492;28;19918;-76
2023/10/20 12:26:29;;;;;;;;;;;;;;;23.12;48.72;98762.31;5040407;28;19917;-77
2023/10/20 12:28:56;;;;;;;;;;;;;;;23.12;47.67;98767.22;5025249;28;19917;-77
2023/10/20 12:31:24;;;;;;;;;;;;;;;22.73;48.41;98763.88;5024196;28;19917;-73
2023/10/20 12:33:49;;;;;;;;;;;;;;;23.07;48.60;98771.38;5031903;28;19952;-73
2023/10/20 12:36:16;;;;;;;;;;;;;;;23.26;47.18;98763.25;5025929;28;20032;-81
2023/10/20 12:38:43;;;;;;;;;;;;;;;23.31;48.03;98762.78;5019036;28;19924;-81
2023/10/20 12:41:09;;;;;;;;;;;;;;;23.39;47.84;98755.66;5022556;28;19924;-81
2023/10/20 12:43:34;;;;;;;;;;;;;;;23.50;48.01;98752.59;5015148;28;19926;-80
2023/10/20 12:46:00;;;;;;;;;;;;;;;23.44;48.05;98759.25;5024865;28;20000;-81
2023/10/20 12:48:25;;;;;;;;;;;;;;;23.35;47.80;98760.66;5038604;28;20311;-81
2023/10/20 12:50:51;;;;;;;;;;;;;;;23.26;47.91;98769.78;5014101;28;19925;-81
2023/10/20 12:53:16;;;;;;;;;;;;;;;23.34;47.80;98773.31;5015192;28;19928;-80
2023/10/20 12:55:41;;;;;;;;;;;;;;;23.51;46.91;98753.38;5018901;28;19967;-81
2023/10/20 12:58:07;;;;;;;;;;;;;;;23.58;47.05;98758.94;5032717;28;19986;-78
2023/10/20 13:00:32;;;;;;;;;;;;;;;23.70;47.15;98751.72;5017027;28;20416;-78
2023/10/20 13:02:57;;;;;;;;;;;;;;;23.82;47.27;98755.97;5023537;28;20015;-78
2023/10/20 13:05:23;;;;;;;;;;;;;;;23.82;46.59;98753.91;5021953;28;20016;-78
2023/10/20 13:07:50;;;;;;;;;;;;;;;23.91;45.95;98759.03;5027234;28;19917;-81
2023/10/20 13:10:15;;;;;;;;;;;;;;;23.79;46.28;98748.28;5012719;28;19931;-77
2023/10/20 13:12:41;;;;;;;;;;;;;;;23.70;46.77;98741.13;5021875;28;19921;-77
2023/10/20 13:15:09;;;;;;;;;;;;;;;23.87;46.21;98752.56;5032447;28;20358;-77
2023/10/20 13:17:34;;;;;;;;;;;;;;;23.95;47.09;98754.03;5030171;28;19917;-77
2023/10/20 13:20:03;;;;;;;;;;;;;;;24.07;45.93;98760.31;5030659;28;19913;-77